createdAt,value
2023-04-16T00:00:48.496Z,100.00
2023-04-16T00:05:09.652Z,100.00
2023-04-16T00:09:12.824Z,100.00
2023-04-16T00:13:16.635Z,100.00
2023-04-16T00:17:19.892Z,100.00
2023-04-16T00:21:23.271Z,100.00
2023-04-16T00:25:26.491Z,100.00
2023-04-16T00:29:31.246Z,100.00
2023-04-16T00:33:34.992Z,100.00
2023-04-16T00:37:38.909Z,100.00
2023-04-16T00:41:51.102Z,100.00
2023-04-16T00:45:57.301Z,100.00
2023-04-16T00:50:00.720Z,100.00
2023-04-16T00:54:04.622Z,100.00
2023-04-16T00:58:07.921Z,100.00
2023-04-16T01:02:11.244Z,100.00
2023-04-16T01:06:16.961Z,100.00
2023-04-16T01:10:20.300Z,100.00
2023-04-16T01:14:23.492Z,100.00
2023-04-16T01:18:27.228Z,100.00
2023-04-16T01:22:30.801Z,100.00
2023-04-16T01:26:35.151Z,100.00
2023-04-16T01:30:39.036Z,100.00
2023-04-16T01:34:42.759Z,100.00
2023-04-16T01:38:46.624Z,100.00
2023-04-16T01:42:51.815Z,100.00
2023-04-16T01:46:56.490Z,100.00
2023-04-16T01:51:00.781Z,100.00
2023-04-16T01:55:06.254Z,100.00
2023-04-16T01:59:10.583Z,100.00
2023-04-16T02:03:14.217Z,100.00
2023-04-16T02:07:17.998Z,100.00
2023-04-16T02:11:21.713Z,100.00
2023-04-16T02:15:25.533Z,100.00
2023-04-16T02:19:29.512Z,100.00
2023-04-16T02:23:34.170Z,100.00
2023-04-16T02:27:37.803Z,100.00
2023-04-16T02:31:42.693Z,100.00
2023-04-16T02:35:46.265Z,100.00
2023-04-16T02:39:50.169Z,100.00
2023-04-16T02:43:53.758Z,100.00
2023-04-16T02:47:57.990Z,100.00
2023-04-16T02:52:01.276Z,100.00
2023-04-16T02:56:05.402Z,100.00
2023-04-16T03:00:09.776Z,100.00
2023-04-16T03:04:13.590Z,100.00
2023-04-16T03:08:18.182Z,100.00
2023-04-16T03:12:22.269Z,100.00
2023-04-16T03:16:25.939Z,100.00
2023-04-16T03:20:29.277Z,100.00
2023-04-16T03:24:32.581Z,100.00
2023-04-16T03:28:36.017Z,100.00
2023-04-16T03:32:39.555Z,100.00
2023-04-16T03:36:42.978Z,100.00
2023-04-16T03:40:46.567Z,100.00
2023-04-16T03:44:50.671Z,100.00
2023-04-16T03:48:54.828Z,100.00
2023-04-16T03:52:58.816Z,100.00
2023-04-16T03:57:02.821Z,100.00
2023-04-16T04:01:06.579Z,100.00
2023-04-16T04:05:10.647Z,100.00
2023-04-16T04:09:16.712Z,100.00
2023-04-16T04:13:20.063Z,100.00
2023-04-16T04:17:23.480Z,100.00
2023-04-16T04:21:30.194Z,100.00
2023-04-16T04:25:33.744Z,100.00
2023-04-16T04:29:37.071Z,100.00
2023-04-16T04:33:40.588Z,100.00
2023-04-16T04:37:45.215Z,100.00
2023-04-16T04:41:49.134Z,100.00
2023-04-16T04:45:52.460Z,100.00
2023-04-16T04:49:55.749Z,100.00
2023-04-16T04:53:59.303Z,100.00
2023-04-16T04:58:04.064Z,100.00
2023-04-16T05:02:07.910Z,100.00
2023-04-16T05:06:11.471Z,100.00
2023-04-16T05:10:14.842Z,100.00
2023-04-16T05:14:18.113Z,100.00
2023-04-16T05:18:21.384Z,100.00
2023-04-16T05:22:24.659Z,100.00
2023-04-16T05:26:27.858Z,100.00
2023-04-16T05:30:31.256Z,100.00
2023-04-16T05:34:34.811Z,100.00
2023-04-16T05:38:38.312Z,100.00
2023-04-16T05:42:42.032Z,100.00
2023-04-16T05:46:45.989Z,100.00
2023-04-16T05:50:49.885Z,100.00
2023-04-16T05:54:54.386Z,100.00
2023-04-16T05:58:57.731Z,100.00
2023-04-16T06:03:01.364Z,100.00
2023-04-16T06:07:04.948Z,100.00
2023-04-16T06:11:08.520Z,100.00
2023-04-16T06:15:11.863Z,100.00
2023-04-16T06:19:15.496Z,100.00
2023-04-16T06:23:18.868Z,100.00
2023-04-16T06:27:23.563Z,100.00
2023-04-16T06:31:28.415Z,100.00
2023-04-16T06:35:31.974Z,100.00
2023-04-16T06:39:35.644Z,100.00
2023-04-16T06:43:39.819Z,100.00
2023-04-16T06:47:44.017Z,100.00
2023-04-16T07:08:29.169Z,100.00
2023-04-16T07:12:32.880Z,100.00
2023-04-16T07:16:37.260Z,100.00
2023-04-16T07:20:39.180Z,100.00
2023-04-16T07:24:40.953Z,100.00
2023-04-16T07:28:46.157Z,100.00
2023-04-16T07:32:47.983Z,100.00
2023-04-16T07:36:50.037Z,100.00
2023-04-16T07:40:54.982Z,100.00
2023-04-16T07:44:56.538Z,100.00
2023-04-16T07:49:02.198Z,100.00
2023-04-16T07:53:06.154Z,100.00
2023-04-16T07:57:07.887Z,100.00
2023-04-16T08:01:35.153Z,100.00
2023-04-16T08:05:36.918Z,100.00
2023-04-16T08:09:50.050Z,100.00
2023-04-16T08:13:51.823Z,100.00
2023-04-16T08:17:53.688Z,100.00
2023-04-16T08:22:18.091Z,100.00
2023-04-16T08:26:20.066Z,100.00
2023-04-16T08:30:21.634Z,100.00
2023-04-16T08:34:23.445Z,100.00
2023-04-16T08:38:27.211Z,100.00
2023-04-16T08:42:32.371Z,100.00
2023-04-16T08:46:38.122Z,100.00
2023-04-16T08:50:41.034Z,100.00
2023-04-16T08:55:00.197Z,99.07
2023-04-16T08:59:05.238Z,97.09
2023-04-16T09:03:09.485Z,97.39
2023-04-16T09:07:11.846Z,98.37
2023-04-16T09:11:13.970Z,96.37
2023-04-16T09:16:12.242Z,93.62
2023-04-16T09:20:15.638Z,94.13
2023-04-16T09:24:22.094Z,92.25
2023-04-16T09:33:26.104Z,91.29
2023-04-16T09:37:56.719Z,90.86
2023-04-16T09:41:58.890Z,90.97
2023-04-16T09:46:08.092Z,90.19
2023-04-16T09:50:18.196Z,88.61
2023-04-16T09:54:53.075Z,87.14
2023-04-16T09:59:01.908Z,87.05
2023-04-16T10:03:06.748Z,85.08
2023-04-16T10:07:09.028Z,85.78
2023-04-16T10:11:11.720Z,84.46
2023-04-16T10:15:13.509Z,84.02
2023-04-16T10:19:17.310Z,84.87
2023-04-16T10:23:23.390Z,86.64
2023-04-16T10:27:26.322Z,85.51
2023-04-16T10:31:40.735Z,85.73
2023-04-16T10:35:46.841Z,79.84
2023-04-16T10:39:58.427Z,76.47
2023-04-16T10:44:10.731Z,77.35
2023-04-16T10:48:14.843Z,77.91
2023-04-16T10:52:16.821Z,79.03
2023-04-16T10:56:27.278Z,78.21
2023-04-16T11:00:29.077Z,79.13
2023-04-16T11:04:36.877Z,77.27
2023-04-16T11:08:53.280Z,73.99
2023-04-16T11:12:58.358Z,69.67
2023-04-16T11:17:03.587Z,69.83
2023-04-16T11:21:14.869Z,71.57
2023-04-16T11:25:30.940Z,72.18
2023-04-16T11:29:32.691Z,75.49
2023-04-16T11:33:34.198Z,76.96
2023-04-16T11:37:38.129Z,77.19
2023-04-16T11:41:50.439Z,78.07
2023-04-16T11:46:24.114Z,73.02
2023-04-16T11:54:50.984Z,69.24
2023-04-16T12:21:50.965Z,64.13
